Time;durP1;ratioP1;P1;durP2;ratioP2;P2;SDS_P1;SDS_P2;PMS_P1;PMS_P2;Temp;Humidity;BMP_temperature;BMP_pressure;BME280_temperature;BME280_humidity;BME280_pressure;Samples;Min_cycle;Max_cycle;Signal;HPM_P1;HPM_P2
2022/01/25 00:10:38;;;;;;;12.07;6.73;;;-3.50;99.90;;;;;;2090167;28;20208;-69
2022/01/25 00:25:06;;;;;;;11.68;7.07;;;-3.40;99.90;;;;;;2089967;28;20210;-69
2022/01/25 00:28:21;;;;;;;15.37;7.53;;;-3.50;99.90;;;;;;2089336;28;20198;-69
2022/01/25 00:29:48;;;;;;;13.27;7.10;;;-3.40;99.90;;;;;;2089287;28;20189;-69
2022/01/25 00:31:09;;;;;;;14.15;6.88;;;-3.50;99.90;;;;;;2089708;28;20582;-69
2022/01/25 00:32:14;;;;;;;11.90;6.55;;;-3.50;99.90;;;;;;2089335;28;20696;-69
2022/01/25 00:33:15;;;;;;;11.63;6.13;;;-3.60;99.90;;;;;;2092629;28;20196;-69
2022/01/25 00:34:15;;;;;;;12.70;6.50;;;-3.60;99.90;;;;;;2097550;28;20590;-69
2022/01/25 00:35:16;;;;;;;12.83;6.50;;;-3.60;99.90;;;;;;2089947;28;20173;-69
2022/01/25 00:36:21;;;;;;;15.13;7.47;;;-3.60;99.90;;;;;;2089750;28;20557;-69
2022/01/25 00:37:22;;;;;;;13.27;7.40;;;-3.60;99.90;;;;;;2089281;28;20534;-69
2022/01/25 00:38:24;;;;;;;11.55;6.95;;;-3.60;99.90;;;;;;2080900;28;20182;-69
2022/01/25 00:39:25;;;;;;;13.93;7.10;;;-3.60;99.90;;;;;;2089138;28;20531;-69
2022/01/25 00:40:25;;;;;;;15.03;7.07;;;-3.60;99.90;;;;;;2089234;28;20281;-69
2022/01/25 00:41:27;;;;;;;14.03;7.53;;;-3.60;99.90;;;;;;2089289;28;20732;-69
2022/01/25 00:42:27;;;;;;;10.60;6.80;;;-3.60;99.90;;;;;;2097426;28;20199;-69
2022/01/25 00:43:28;;;;;;;11.97;6.70;;;-3.60;99.90;;;;;;2089820;28;20645;-69
2022/01/25 00:44:34;;;;;;;13.50;6.90;;;-3.60;99.90;;;;;;2089220;28;20787;-69
2022/01/25 00:45:35;;;;;;;18.42;8.68;;;-3.60;99.90;;;;;;2089295;28;20170;-69
2022/01/25 00:46:36;;;;;;;14.40;7.85;;;-3.60;99.90;;;;;;2089793;28;20553;-69
2022/01/25 00:47:40;;;;;;;12.40;6.23;;;-3.50;99.90;;;;;;2089194;28;20168;-69
2022/01/25 00:48:46;;;;;;;13.20;6.68;;;-3.60;99.90;;;;;;2089294;28;20208;-69
2022/01/25 00:49:52;;;;;;;15.05;7.03;;;-3.60;99.90;;;;;;2088907;28;20234;-69
2022/01/25 00:51:02;;;;;;;16.08;6.68;;;-3.60;99.90;;;;;;2089331;28;20166;-69
2022/01/25 00:54:47;;;;;;;10.25;5.35;;;-3.60;99.90;;;;;;2089582;28;20170;-69
2022/01/25 00:55:48;;;;;;;15.75;6.68;;;-3.60;99.90;;;;;;2089730;28;20228;-69
2022/01/25 00:56:50;;;;;;;12.40;7.17;;;-3.60;99.90;;;;;;2089196;28;20182;-69
2022/01/25 00:57:51;;;;;;;12.07;6.30;;;-3.60;99.90;;;;;;2081048;28;20255;-69
2022/01/25 00:58:52;;;;;;;12.43;5.57;;;-3.50;99.90;;;;;;2088486;28;20709;-70
2022/01/25 00:59:52;;;;;;;12.82;7.25;;;-3.50;99.90;;;;;;2097409;28;20557;-69
2022/01/25 01:00:53;;;;;;;11.20;6.77;;;-3.50;99.90;;;;;;2097509;28;20177;-69
2022/01/25 01:01:58;;;;;;;14.53;6.57;;;-3.50;99.90;;;;;;2089887;28;20652;-69
2022/01/25 01:02:59;;;;;;;15.75;6.50;;;-3.60;99.90;;;;;;2089248;28;20158;-69
2022/01/25 01:04:00;;;;;;;13.27;6.70;;;-3.60;99.90;;;;;;2089103;28;20235;-69
2022/01/25 01:05:01;;;;;;;9.20;5.33;;;-3.60;99.90;;;;;;2089027;28;20177;-69
2022/01/25 01:06:03;;;;;;;12.27;6.93;;;-3.60;99.90;;;;;;2089033;28;20614;-69
2022/01/25 01:07:07;;;;;;;10.93;6.70;;;-3.60;99.90;;;;;;2089761;28;20181;-68
2022/01/25 01:08:08;;;;;;;13.65;7.43;;;-3.60;99.90;;;;;;2089505;28;20569;-69
2022/01/25 01:09:10;;;;;;;12.70;5.93;;;-3.60;99.90;;;;;;2089517;28;20201;-69
2022/01/25 01:10:16;;;;;;;12.95;6.72;;;-3.50;99.90;;;;;;2089664;28;20206;-69
2022/01/25 01:11:27;;;;;;;10.90;5.18;;;-3.50;99.90;;;;;;2091606;28;20183;-69
2022/01/25 01:29:44;;;;;;;12.18;6.22;;;-3.60;99.90;;;;;;2089708;28;20203;-69
2022/01/25 01:30:58;;;;;;;12.52;5.85;;;-3.60;99.90;;;;;;2088997;28;20211;-69
2022/01/25 01:32:19;;;;;;;13.68;6.70;;;-3.60;99.90;;;;;;2089350;28;20173;-69
2022/01/25 01:36:04;;;;;;;14.15;6.18;;;-3.60;99.90;;;;;;2097619;28;20181;-69
2022/01/25 01:37:49;;;;;;;12.85;6.65;;;-3.50;99.90;;;;;;2097760;28;20195;-69
2022/01/25 01:40:25;;;;;;;12.57;5.95;;;-3.60;99.90;;;;;;2098182;28;20593;-68
2022/01/25 01:44:03;;;;;;;13.50;7.10;;;-3.50;99.90;;;;;;2093195;28;20175;-69
2022/01/25 01:45:13;;;;;;;12.90;7.05;;;-3.50;99.90;;;;;;2097587;28;20531;-69
2022/01/25 01:47:23;;;;;;;13.43;6.60;;;-3.50;99.90;;;;;;2090268;28;20271;-69
2022/01/25 01:48:29;;;;;;;12.23;7.88;;;-3.40;99.90;;;;;;2097989;28;20161;-69
2022/01/25 01:49:37;;;;;;;13.40;6.10;;;-3.50;99.90;;;;;;2097153;28;20606;-69
2022/01/25 01:50:39;;;;;;;13.75;6.45;;;-3.50;99.90;;;;;;2097552;28;20178;-69
2022/01/25 01:51:43;;;;;;;15.32;7.75;;;-3.60;99.90;;;;;;2098009;28;20259;-69
2022/01/25 01:52:44;;;;;;;11.18;6.10;;;-3.60;99.90;;;;;;2097907;28;20188;-68
2022/01/25 01:53:46;;;;;;;13.50;6.80;;;-3.60;99.90;;;;;;2097725;28;20188;-69
2022/01/25 01:54:46;;;;;;;11.50;6.18;;;-3.70;99.90;;;;;;2097520;28;20171;-69
2022/01/25 01:55:47;;;;;;;16.00;8.17;;;-3.70;99.90;;;;;;2088992;28;20187;-69
2022/01/25 01:56:48;;;;;;;11.73;6.70;;;-3.70;99.90;;;;;;2089169;28;20176;-69
2022/01/25 01:57:49;;;;;;;12.77;5.90;;;-3.80;99.90;;;;;;2089023;28;20179;-69
2022/01/25 01:58:55;;;;;;;10.70;6.23;;;-3.70;99.90;;;;;;2088940;28;20419;-69
2022/01/25 01:59:56;;;;;;;10.18;6.00;;;-3.80;99.90;;;;;;2089575;28;20181;-69
2022/01/25 02:00:57;;;;;;;13.53;6.17;;;-3.80;99.90;;;;;;2088948;28;20189;-69
2022/01/25 02:01:58;;;;;;;10.97;6.00;;;-3.70;99.90;;;;;;2089011;28;20189;-69
2022/01/25 02:03:00;;;;;;;11.43;5.65;;;-3.70;99.90;;;;;;2089074;28;20179;-69
2022/01/25 02:04:04;;;;;;;12.40;6.05;;;-3.70;99.90;;;;;;2089218;28;20766;-69
2022/01/25 02:05:06;;;;;;;11.82;5.65;;;-3.70;99.90;;;;;;2097317;28;20717;-69
2022/01/25 02:06:07;;;;;;;12.50;6.63;;;-3.70;99.90;;;;;;2097220;28;21012;-69
2022/01/25 02:07:08;;;;;;;13.50;6.40;;;-3.70;99.90;;;;;;2097799;28;20184;-69
2022/01/25 02:08:09;;;;;;;13.30;6.93;;;-3.70;99.90;;;;;;2097205;28;20177;-69
2022/01/25 02:09:11;;;;;;;11.77;6.90;;;-3.80;99.90;;;;;;2097170;28;20160;-69
2022/01/25 02:10:12;;;;;;;11.90;6.57;;;-3.80;99.90;;;;;;2088732;28;20216;-69
2022/01/25 02:11:13;;;;;;;9.43;5.90;;;-3.90;99.90;;;;;;2082137;28;20208;-69
2022/01/25 02:12:14;;;;;;;10.30;5.72;;;-3.90;99.90;;;;;;2099003;28;20236;-69
2022/01/25 02:13:14;;;;;;;12.20;5.50;;;-4.00;99.90;;;;;;2099057;28;20528;-69
2022/01/25 02:14:16;;;;;;;9.83;5.93;;;-3.90;99.90;;;;;;2090534;28;20212;-69
2022/01/25 02:15:18;;;;;;;10.98;5.85;;;-3.90;99.90;;;;;;2098931;28;20225;-69
2022/01/25 02:16:58;;;;;;;11.55;5.93;;;-3.90;99.90;;;;;;2098935;28;20176;-69
2022/01/25 02:23:21;;;;;;;10.13;4.97;;;-3.90;99.90;;;;;;2099183;28;20156;-70
2022/01/25 02:24:21;;;;;;;9.93;5.45;;;-3.90;99.90;;;;;;2099533;28;20564;-69
2022/01/25 02:25:23;;;;;;;11.40;5.67;;;-4.00;99.90;;;;;;2099334;28;20184;-69
2022/01/25 02:26:23;;;;;;;11.50;6.57;;;-4.00;99.90;;;;;;2099353;28;20175;-69
2022/01/25 02:27:25;;;;;;;11.47;6.20;;;-4.10;99.90;;;;;;2098778;28;20242;-69
2022/01/25 02:28:30;;;;;;;10.40;5.20;;;-4.10;99.90;;;;;;2090554;28;20177;-70
2022/01/25 02:29:31;;;;;;;11.70;5.82;;;-4.20;99.90;;;;;;2098841;28;20183;-69
2022/01/25 02:30:31;;;;;;;11.17;5.60;;;-4.20;99.90;;;;;;2099517;28;20282;-69
2022/01/25 02:31:32;;;;;;;12.67;6.10;;;-4.20;99.90;;;;;;2099333;28;20172;-69
2022/01/25 02:32:33;;;;;;;11.47;5.37;;;-4.20;99.90;;;;;;2098786;28;20179;-69
2022/01/25 02:33:34;;;;;;;11.30;6.03;;;-4.20;99.90;;;;;;2090569;28;20178;-69
2022/01/25 02:34:35;;;;;;;13.15;5.82;;;-4.20;99.90;;;;;;2098841;28;20183;-69
2022/01/25 02:35:37;;;;;;;10.77;5.30;;;-4.20;99.90;;;;;;2098785;28;20886;-69
2022/01/25 02:36:37;;;;;;;13.48;5.55;;;-4.20;99.90;;;;;;2098760;28;20172;-69
2022/01/25 02:37:38;;;;;;;12.67;6.20;;;-4.20;99.90;;;;;;2090392;28;20665;-69
2022/01/25 02:38:39;;;;;;;12.37;5.50;;;-4.20;99.90;;;;;;2098812;28;20550;-70
2022/01/25 02:39:42;;;;;;;11.53;6.07;;;-4.20;99.90;;;;;;2098417;28;20589;-69
2022/01/25 02:40:43;;;;;;;11.25;5.97;;;-4.20;99.90;;;;;;2098832;28;20199;-69
2022/01/25 02:41:43;;;;;;;9.70;5.80;;;-4.20;99.90;;;;;;2098636;28;20919;-69
2022/01/25 02:42:44;;;;;;;10.53;5.00;;;-4.20;99.90;;;;;;2098756;28;20187;-69
2022/01/25 02:43:46;;;;;;;13.07;5.67;;;-4.30;99.90;;;;;;2099279;28;20237;-69
2022/01/25 02:44:48;;;;;;;11.02;5.05;;;-4.40;99.90;;;;;;2099401;28;20176;-69
2022/01/25 02:46:07;;;;;;;8.82;5.03;;;-4.50;99.90;;;;;;2099310;28;20778;-69
2022/01/25 02:48:30;;;;;;;8.93;4.93;;;-4.50;99.90;;;;;;2098728;28;20179;-69
2022/01/25 02:49:35;;;;;;;9.05;4.85;;;-4.50;99.90;;;;;;2098701;28;20164;-69
2022/01/25 02:50:36;;;;;;;9.30;5.75;;;-4.50;99.90;;;;;;2099108;28;20199;-69
2022/01/25 02:51:42;;;;;;;14.00;5.33;;;-4.50;99.90;;;;;;2099327;28;20210;-69
2022/01/25 02:52:42;;;;;;;12.73;5.70;;;-4.40;99.90;;;;;;2098603;28;20164;-69
2022/01/25 02:53:43;;;;;;;11.40;5.97;;;-4.40;99.90;;;;;;2098721;28;20271;-69
2022/01/25 02:54:44;;;;;;;10.60;4.77;;;-4.40;99.90;;;;;;2098618;28;20176;-69
2022/01/25 02:55:45;;;;;;;11.75;5.20;;;-4.30;99.90;;;;;;2090481;28;20211;-69
2022/01/25 02:56:47;;;;;;;13.93;6.30;;;-4.40;99.90;;;;;;2098531;28;20180;-69
2022/01/25 02:57:48;;;;;;;9.38;5.50;;;-4.40;99.90;;;;;;2098515;28;20183;-69
2022/01/25 02:58:49;;;;;;;10.38;5.18;;;-4.40;99.90;;;;;;2090101;28;20217;-69
2022/01/25 02:59:50;;;;;;;11.57;5.65;;;-4.50;99.90;;;;;;2090274;28;20652;-68
2022/01/25 03:00:51;;;;;;;9.13;6.17;;;-4.50;99.90;;;;;;2099110;28;20196;-69
2022/01/25 03:01:51;;;;;;;9.53;5.83;;;-4.50;99.90;;;;;;2098476;28;20191;-69
2022/01/25 03:02:52;;;;;;;12.43;5.83;;;-4.50;99.90;;;;;;2098503;28;20720;-69
2022/01/25 03:03:53;;;;;;;9.43;5.60;;;-4.50;99.90;;;;;;2098600;28;20180;-69
2022/01/25 03:04:53;;;;;;;9.13;5.03;;;-4.50;99.90;;;;;;2098438;28;20188;-68
2022/01/25 03:05:54;;;;;;;10.90;4.47;;;-4.50;99.90;;;;;;2090319;28;20216;-69
2022/01/25 03:06:55;;;;;;;10.73;5.80;;;-4.50;99.90;;;;;;2098513;28;20183;-68
2022/01/25 03:07:57;;;;;;;9.57;5.53;;;-4.60;99.90;;;;;;2099158;28;20211;-68
2022/01/25 03:08:58;;;;;;;9.50;4.97;;;-4.60;99.90;;;;;;2098832;28;20164;-68
2022/01/25 03:09:59;;;;;;;8.00;5.30;;;-4.60;99.90;;;;;;2098389;28;20206;-68
2022/01/25 03:11:01;;;;;;;9.38;5.10;;;-4.60;99.90;;;;;;2090289;28;20455;-69
2022/01/25 03:12:06;;;;;;;8.25;5.00;;;-4.60;99.90;;;;;;2090482;28;20223;-68
2022/01/25 03:13:11;;;;;;;8.40;5.00;;;-4.60;99.90;;;;;;2098497;28;20180;-68
2022/01/25 03:14:12;;;;;;;11.32;5.63;;;-4.50;99.90;;;;;;2098421;28;20195;-69
2022/01/25 03:16:27;;;;;;;9.45;4.75;;;-4.50;99.90;;;;;;2098701;28;20233;-68
2022/01/25 03:17:31;;;;;;;9.32;4.50;;;-4.50;99.90;;;;;;2092141;28;20211;-68
2022/01/25 03:20:50;;;;;;;11.73;4.75;;;-4.50;99.90;;;;;;2098399;28;20282;-69
2022/01/25 03:21:51;;;;;;;7.75;4.43;;;-4.50;99.90;;;;;;2097932;28;20179;-69
2022/01/25 03:23:57;;;;;;;9.57;4.78;;;-4.50;99.90;;;;;;2098901;28;20194;-69
2022/01/25 03:24:57;;;;;;;8.15;4.57;;;-4.50;99.90;;;;;;2098327;28;20190;-68
2022/01/25 03:25:58;;;;;;;7.90;4.30;;;-4.50;99.90;;;;;;2090203;28;20557;-68
2022/01/25 03:26:59;;;;;;;9.50;4.83;;;-4.50;99.90;;;;;;2098519;28;20180;-69
2022/01/25 03:28:00;;;;;;;8.20;4.27;;;-4.40;99.90;;;;;;2098347;28;20187;-72
2022/01/25 03:29:00;;;;;;;7.20;3.73;;;-4.40;99.90;;;;;;2098283;28;20210;-69
2022/01/25 03:30:01;;;;;;;6.73;3.90;;;-4.40;99.90;;;;;;2098170;28;20226;-68
2022/01/25 03:31:02;;;;;;;5.33;3.37;;;-4.40;99.90;;;;;;2098533;28;20551;-69
2022/01/25 03:32:04;;;;;;;8.73;4.22;;;-4.30;99.90;;;;;;2098969;28;20181;-68
2022/01/25 03:33:05;;;;;;;7.55;4.05;;;-4.30;99.90;;;;;;2098314;28;20606;-68
2022/01/25 03:34:06;;;;;;;8.70;4.37;;;-4.30;99.90;;;;;;2089929;28;20224;-68
2022/01/25 03:35:07;;;;;;;7.13;4.20;;;-4.40;99.90;;;;;;2089922;28;20268;-69
2022/01/25 03:36:08;;;;;;;10.23;4.55;;;-4.30;99.90;;;;;;2098562;28;20176;-69
2022/01/25 03:37:09;;;;;;;6.43;3.63;;;-4.30;99.90;;;;;;2098309;28;20172;-69
2022/01/25 03:38:10;;;;;;;13.37;5.23;;;-4.30;99.90;;;;;;2098229;28;20219;-68
2022/01/25 03:39:11;;;;;;;6.22;3.25;;;-4.30;99.90;;;;;;2098594;28;20676;-69
2022/01/25 03:40:12;;;;;;;9.50;4.30;;;-4.30;99.90;;;;;;2098450;28;20252;-69
2022/01/25 03:41:14;;;;;;;7.35;4.20;;;-4.30;99.90;;;;;;2098925;28;20168;-69
2022/01/25 03:42:16;;;;;;;6.45;3.83;;;-4.30;99.90;;;;;;2098239;28;20188;-69
2022/01/25 03:43:18;;;;;;;7.07;3.58;;;-4.20;99.90;;;;;;2098230;28;20187;-69
2022/01/25 03:44:19;;;;;;;9.55;4.55;;;-4.20;99.90;;;;;;2098990;28;20573;-68
2022/01/25 03:45:22;;;;;;;7.80;4.00;;;-4.20;99.90;;;;;;2099039;28;20191;-68
2022/01/25 03:46:37;;;;;;;7.25;3.85;;;-4.10;99.90;;;;;;2098140;28;20180;-69
2022/01/25 03:47:57;;;;;;;6.15;3.60;;;-4.20;99.90;;;;;;2092395;28;20632;-69
2022/01/25 03:50:17;;;;;;;6.65;3.28;;;-4.20;99.90;;;;;;2098717;28;20683;-68
2022/01/25 03:51:18;;;;;;;7.40;3.60;;;-4.20;99.90;;;;;;2098235;28;20180;-68
2022/01/25 03:52:26;;;;;;;7.90;3.77;;;-4.20;99.90;;;;;;2098258;28;20243;-68
2022/01/25 03:53:27;;;;;;;8.63;3.38;;;-4.20;99.90;;;;;;2089438;28;20223;-68
2022/01/25 03:54:28;;;;;;;6.43;3.30;;;-4.20;99.90;;;;;;2089574;28;20211;-69
2022/01/25 03:55:29;;;;;;;7.43;4.17;;;-4.20;99.90;;;;;;2098189;28;20176;-68
2022/01/25 03:56:29;;;;;;;6.70;3.80;;;-4.20;99.90;;;;;;2098818;28;20237;-68
2022/01/25 03:57:30;;;;;;;9.57;4.40;;;-4.20;99.90;;;;;;2098212;28;20664;-69
2022/01/25 03:58:31;;;;;;;7.53;4.43;;;-4.20;99.90;;;;;;2098178;28;20175;-69
2022/01/25 03:59:31;;;;;;;8.97;4.03;;;-4.20;99.90;;;;;;2098678;28;20178;-69
2022/01/25 04:00:34;;;;;;;6.63;3.27;;;-4.20;99.90;;;;;;2098692;28;20214;-69
2022/01/25 04:01:36;;;;;;;9.55;4.55;;;-4.20;99.90;;;;;;2098795;28;20235;-68
2022/01/25 04:02:45;;;;;;;7.90;3.65;;;-4.20;99.90;;;;;;2098817;28;20175;-69
2022/01/25 04:04:23;;;;;;;7.70;3.83;;;-4.20;99.90;;;;;;2098131;28;20188;-69
2022/01/25 04:05:20;;;;;;;8.23;3.63;;;-4.20;99.90;;;;;;2090445;28;20225;-68
2022/01/25 04:06:22;;;;;;;10.60;4.15;;;-4.30;99.90;;;;;;2094456;28;20157;-68
2022/01/25 04:07:31;;;;;;;7.68;4.28;;;-4.40;99.90;;;;;;2098121;28;20179;-68
2022/01/25 04:08:33;;;;;;;8.20;4.10;;;-4.40;99.90;;;;;;2089760;28;20195;-69
2022/01/25 04:09:35;;;;;;;7.70;3.72;;;-4.40;99.90;;;;;;2090820;28;20209;-69
2022/01/25 04:10:37;;;;;;;8.43;4.45;;;-4.40;99.90;;;;;;2097678;28;20203;-69
2022/01/25 04:11:37;;;;;;;7.82;4.53;;;-4.30;99.90;;;;;;2089624;28;20692;-69
2022/01/25 04:12:38;;;;;;;9.03;4.47;;;-4.30;99.90;;;;;;2097800;28;20200;-69
2022/01/25 04:13:39;;;;;;;9.43;4.63;;;-4.30;99.90;;;;;;2098395;28;20568;-69
2022/01/25 04:14:40;;;;;;;9.03;4.63;;;-4.30;99.90;;;;;;2098636;28;20164;-69
2022/01/25 04:15:44;;;;;;;6.93;3.83;;;-4.30;99.90;;;;;;2097765;28;20644;-68
2022/01/25 04:16:55;;;;;;;6.00;3.30;;;-4.40;99.90;;;;;;2090134;28;20219;-69
2022/01/25 04:18:19;;;;;;;8.35;4.07;;;-4.40;99.90;;;;;;2097953;28;20265;-68
2022/01/25 04:19:33;;;;;;;7.05;3.42;;;-4.40;99.90;;;;;;2098260;28;20164;-69
2022/01/25 04:20:35;;;;;;;8.32;3.78;;;-4.40;99.90;;;;;;2098554;28;20203;-69
2022/01/25 04:25:15;;;;;;;4.68;3.10;;;-4.40;99.90;;;;;;2098040;28;20652;-70
2022/01/25 04:26:16;;;;;;;5.50;2.80;;;-4.40;99.90;;;;;;2097986;28;20180;-69
2022/01/25 04:27:16;;;;;;;5.03;2.93;;;-4.40;99.90;;;;;;2098533;28;20183;-69
2022/01/25 04:28:17;;;;;;;6.30;3.67;;;-4.40;99.90;;;;;;2098443;28;20187;-69
2022/01/25 04:29:18;;;;;;;5.03;2.67;;;-4.40;99.90;;;;;;2097618;28;20176;-69
2022/01/25 04:30:19;;;;;;;4.50;2.60;;;-4.30;99.90;;;;;;2097813;28;20747;-69
2022/01/25 04:31:20;;;;;;;7.03;3.73;;;-4.30;99.90;;;;;;2097872;28;20233;-69
2022/01/25 04:32:43;;;;;;;6.15;3.33;;;-4.30;99.90;;;;;;2097888;28;20644;-69
2022/01/25 04:33:56;;;;;;;5.80;3.03;;;-4.30;99.90;;;;;;2097728;28;20172;-68
2022/01/25 04:35:10;;;;;;;6.28;3.45;;;-4.40;99.90;;;;;;2098482;28;20192;-69
2022/01/25 04:50:08;;;;;;;4.75;2.90;;;-4.50;99.90;;;;;;2098116;28;20222;-69
2022/01/25 04:51:25;;;;;;;7.20;3.38;;;-4.60;99.90;;;;;;2097683;28;20741;-68
2022/01/25 04:52:31;;;;;;;5.72;4.20;;;-4.60;99.90;;;;;;2097811;28;20163;-68
2022/01/25 04:53:49;;;;;;;6.20;4.00;;;-4.60;99.90;;;;;;2097618;28;20187;-68
2022/01/25 04:57:53;;;;;;;7.40;3.65;;;-4.50;99.90;;;;;;2070438;28;20666;-69
2022/01/25 04:59:12;;;;;;;4.65;3.75;;;-4.40;99.90;;;;;;2095592;28;20190;-69
2022/01/25 05:00:18;;;;;;;6.50;3.92;;;-4.40;99.90;;;;;;2098054;28;20805;-69
2022/01/25 05:01:19;;;;;;;6.47;3.22;;;-4.40;99.90;;;;;;2098089;28;20781;-69
2022/01/25 05:03:38;;;;;;;5.95;3.45;;;-4.50;99.90;;;;;;2097546;28;20206;-69
2022/01/25 05:04:44;;;;;;;4.75;3.45;;;-4.60;99.90;;;;;;2097654;28;20161;-69
2022/01/25 05:06:05;;;;;;;7.70;4.00;;;-4.60;99.90;;;;;;2098037;28;20179;-69
2022/01/25 05:07:34;;;;;;;6.75;3.75;;;-4.60;99.90;;;;;;2097368;28;20213;-69
2022/01/25 05:09:32;;;;;;;9.38;4.00;;;-4.70;99.90;;;;;;2097802;28;20666;-69
2022/01/25 05:10:45;;;;;;;5.28;3.42;;;-4.70;99.90;;;;;;2097940;28;20600;-69
2022/01/25 05:11:49;;;;;;;6.45;4.03;;;-4.70;99.90;;;;;;2097897;28;20187;-68
2022/01/25 05:13:10;;;;;;;5.75;3.95;;;-4.70;99.90;;;;;;2096916;28;20652;-69
2022/01/25 05:14:16;;;;;;;6.55;3.40;;;-4.70;99.90;;;;;;2091950;28;20195;-68
2022/01/25 05:15:22;;;;;;;5.70;3.45;;;-4.70;99.90;;;;;;2092587;28;20167;-69
2022/01/25 05:16:29;;;;;;;7.47;3.47;;;-4.70;99.90;;;;;;2090455;28;20176;-68
2022/01/25 05:17:37;;;;;;;4.78;3.50;;;-4.70;99.90;;;;;;2089754;28;20236;-69
2022/01/25 05:18:42;;;;;;;4.72;2.92;;;-4.70;99.90;;;;;;2097432;28;20160;-69
2022/01/25 05:22:27;;;;;;;5.10;3.63;;;-4.70;99.90;;;;;;2097845;28;20167;-69
2022/01/25 05:23:28;;;;;;;6.00;4.00;;;-4.80;99.90;;;;;;2097322;28;20151;-68
2022/01/25 05:24:30;;;;;;;6.33;3.60;;;-4.80;99.90;;;;;;2091956;28;20267;-69
2022/01/25 05:25:30;;;;;;;6.18;3.72;;;-4.80;99.90;;;;;;2089091;28;20177;-69
2022/01/25 05:26:31;;;;;;;5.40;3.47;;;-4.80;99.90;;;;;;2097228;28;20893;-69
2022/01/25 05:27:31;;;;;;;5.17;3.57;;;-4.80;99.90;;;;;;2097827;28;20578;-69
2022/01/25 05:28:33;;;;;;;4.40;3.23;;;-4.80;99.90;;;;;;2097982;28;20179;-68
2022/01/25 05:29:34;;;;;;;5.40;2.97;;;-4.80;99.90;;;;;;2097024;28;20273;-69
2022/01/25 05:30:34;;;;;;;4.63;3.43;;;-4.80;99.90;;;;;;2097348;28;20199;-69
2022/01/25 05:31:37;;;;;;;4.63;3.30;;;-4.80;99.90;;;;;;2097382;28;20172;-68
2022/01/25 05:32:39;;;;;;;7.55;3.42;;;-4.80;99.90;;;;;;2097162;28;20688;-69
2022/01/25 05:33:39;;;;;;;7.78;3.15;;;-4.80;99.90;;;;;;2097703;28;20319;-68
2022/01/25 05:34:41;;;;;;;4.23;2.53;;;-4.90;99.90;;;;;;2097777;28;20278;-68
2022/01/25 05:35:41;;;;;;;4.80;2.78;;;-4.90;99.90;;;;;;2097083;28;20186;-69
2022/01/25 05:36:43;;;;;;;4.73;2.50;;;-4.80;99.90;;;;;;2088537;28;20188;-69
2022/01/25 05:37:44;;;;;;;5.35;2.67;;;-4.80;99.90;;;;;;2097161;28;20176;-69
2022/01/25 05:38:46;;;;;;;4.13;2.80;;;-4.80;99.90;;;;;;2089387;28;20223;-69
2022/01/25 05:39:49;;;;;;;5.82;3.03;;;-4.80;99.90;;;;;;2089258;28;20204;-68
2022/01/25 05:40:56;;;;;;;4.95;3.50;;;-4.70;99.90;;;;;;2089427;28;20180;-69
2022/01/25 05:42:12;;;;;;;6.30;2.63;;;-4.70;99.90;;;;;;2089552;28;20156;-69
2022/01/25 05:44:23;;;;;;;5.43;2.95;;;-4.70;99.90;;;;;;2090956;28;20743;-68
2022/01/25 05:45:39;;;;;;;4.82;2.35;;;-4.70;99.90;;;;;;2095991;28;20715;-68
2022/01/25 05:47:56;;;;;;;4.25;2.70;;;-4.70;99.90;;;;;;2089614;28;20211;-68
2022/01/25 05:48:57;;;;;;;3.37;2.80;;;-4.70;99.90;;;;;;2088533;28;20269;-69
2022/01/25 05:49:59;;;;;;;3.93;2.33;;;-4.60;99.90;;;;;;2088758;28;20271;-69
2022/01/25 05:51:00;;;;;;;3.28;1.70;;;-4.60;99.90;;;;;;2096848;28;20255;-69
2022/01/25 05:52:03;;;;;;;3.43;2.50;;;-4.60;99.90;;;;;;2088862;28;20176;-69
2022/01/25 05:53:03;;;;;;;2.50;1.95;;;-4.60;99.90;;;;;;2080848;28;20189;-69
2022/01/25 05:54:04;;;;;;;3.65;2.13;;;-4.60;99.90;;;;;;2088715;28;20639;-69
2022/01/25 05:55:06;;;;;;;2.97;2.30;;;-4.60;99.90;;;;;;2089373;28;20231;-68
2022/01/25 05:56:07;;;;;;;3.03;1.95;;;-4.60;99.90;;;;;;2088702;28;20742;-69
2022/01/25 05:57:08;;;;;;;4.97;2.47;;;-4.60;99.90;;;;;;2088812;28;20181;-69
2022/01/25 05:58:08;;;;;;;3.73;2.10;;;-4.60;99.90;;;;;;2089440;28;20168;-70
2022/01/25 05:59:09;;;;;;;3.77;2.67;;;-4.60;99.90;;;;;;2088613;28;20187;-69
2022/01/25 06:00:11;;;;;;;2.97;2.07;;;-4.60;99.90;;;;;;2088520;28;20192;-69
2022/01/25 06:01:12;;;;;;;4.13;2.72;;;-4.60;99.90;;;;;;2096873;28;20769;-68
2022/01/25 06:02:17;;;;;;;2.27;1.90;;;-4.50;99.90;;;;;;2089288;28;20187;-69
2022/01/25 06:03:18;;;;;;;2.50;1.88;;;-4.50;99.90;;;;;;2088816;28;20639;-69
2022/01/25 06:04:22;;;;;;;3.30;2.10;;;-4.50;99.90;;;;;;2089348;28;20184;-69
2022/01/25 06:05:25;;;;;;;3.13;2.22;;;-4.50;99.90;;;;;;2088700;28;20287;-69
2022/01/25 06:06:27;;;;;;;2.80;1.80;;;-4.40;99.90;;;;;;2088803;28;20204;-69
2022/01/25 06:07:27;;;;;;;3.00;2.22;;;-4.40;99.90;;;;;;2088679;28;20267;-69
2022/01/25 06:08:28;;;;;;;6.70;2.77;;;-4.30;99.90;;;;;;2080307;28;20824;-69
2022/01/25 06:09:29;;;;;;;4.80;3.37;;;-4.50;99.90;;;;;;2088588;28;20653;-69
2022/01/25 06:10:31;;;;;;;8.65;4.35;;;-4.50;99.90;;;;;;2089184;28;20195;-69
2022/01/25 06:11:33;;;;;;;7.50;4.20;;;-4.60;99.90;;;;;;2088806;28;20224;-69
2022/01/25 06:12:34;;;;;;;6.38;3.90;;;-4.70;99.90;;;;;;2088797;28;20184;-69
2022/01/25 06:13:35;;;;;;;6.77;3.60;;;-4.70;99.90;;;;;;2089433;28;20657;-69
2022/01/25 06:14:36;;;;;;;8.00;3.77;;;-4.70;99.90;;;;;;2089234;28;20655;-69
2022/01/25 06:15:36;;;;;;;10.18;5.40;;;-4.80;99.90;;;;;;2089443;28;20218;-68
2022/01/25 06:16:37;;;;;;;8.33;4.90;;;-4.80;99.90;;;;;;2089299;28;20665;-69
2022/01/25 06:17:38;;;;;;;8.70;4.47;;;-4.80;99.90;;;;;;2089380;28;20168;-69
2022/01/25 06:18:39;;;;;;;5.25;3.05;;;-4.80;99.90;;;;;;2089308;28;20185;-69
2022/01/25 06:19:40;;;;;;;6.87;3.83;;;-4.80;99.90;;;;;;2089114;28;20177;-69
2022/01/25 06:20:40;;;;;;;7.05;3.50;;;-4.90;99.90;;;;;;2088731;28;20175;-69
2022/01/25 06:21:41;;;;;;;5.33;3.23;;;-4.90;99.90;;;;;;2088708;28;20188;-69
2022/01/25 06:22:42;;;;;;;5.67;3.40;;;-5.00;99.90;;;;;;2089382;28;20170;-69
2022/01/25 06:23:43;;;;;;;7.07;3.05;;;-5.00;99.90;;;;;;2089381;28;20838;-68
2022/01/25 06:24:43;;;;;;;7.87;3.93;;;-5.10;99.90;;;;;;2089578;28;20180;-68
2022/01/25 06:25:44;;;;;;;5.47;2.93;;;-5.10;99.90;;;;;;2088851;28;20182;-68
2022/01/25 06:26:45;;;;;;;6.17;3.23;;;-5.10;99.90;;;;;;2088643;28;20176;-68
2022/01/25 06:27:46;;;;;;;6.27;3.40;;;-5.10;99.90;;;;;;2089377;28;20180;-68
2022/01/25 06:28:46;;;;;;;8.63;3.53;;;-5.10;99.90;;;;;;2088660;28;20173;-68
2022/01/25 06:29:47;;;;;;;7.57;4.00;;;-5.00;99.90;;;;;;2088434;28;20185;-68
2022/01/25 06:30:48;;;;;;;5.00;3.10;;;-5.00;99.90;;;;;;2096900;28;20183;-68
2022/01/25 06:31:49;;;;;;;4.90;2.70;;;-5.00;99.90;;;;;;2089340;28;20270;-68
2022/01/25 06:32:50;;;;;;;6.17;3.70;;;-5.00;99.90;;;;;;2088680;28;20179;-69
2022/01/25 06:33:50;;;;;;;5.27;3.20;;;-4.90;99.90;;;;;;2088672;28;20673;-68
2022/01/25 06:34:51;;;;;;;6.80;3.97;;;-4.90;99.90;;;;;;2089311;28;20546;-68
2022/01/25 06:35:52;;;;;;;6.80;3.47;;;-4.90;99.90;;;;;;2088807;28;20181;-69
2022/01/25 06:36:52;;;;;;;5.97;3.77;;;-4.90;99.90;;;;;;2088627;28;20177;-68
2022/01/25 06:37:53;;;;;;;6.93;3.87;;;-4.90;99.90;;;;;;2088781;28;20667;-68
2022/01/25 06:38:54;;;;;;;8.20;4.20;;;-4.90;99.90;;;;;;2088601;28;20547;-68
2022/01/25 06:39:56;;;;;;;7.97;4.40;;;-5.00;99.90;;;;;;2088614;28;20187;-68
2022/01/25 06:40:57;;;;;;;7.35;4.40;;;-4.90;99.90;;;;;;2088766;28;20177;-68
2022/01/25 06:41:57;;;;;;;8.97;4.67;;;-4.90;99.90;;;;;;2089333;28;20549;-68
2022/01/25 06:42:58;;;;;;;8.27;5.13;;;-4.90;99.90;;;;;;2088660;28;20185;-68
2022/01/25 06:43:59;;;;;;;7.53;4.33;;;-4.90;99.90;;;;;;2088706;28;20208;-69
2022/01/25 06:45:02;;;;;;;8.10;4.70;;;-4.90;99.90;;;;;;2088671;28;20279;-68
2022/01/25 06:46:03;;;;;;;8.80;4.35;;;-4.80;99.90;;;;;;2088642;28;20181;-69
2022/01/25 06:47:04;;;;;;;6.90;3.73;;;-4.90;99.90;;;;;;2089292;28;20196;-68
2022/01/25 06:48:06;;;;;;;5.20;3.10;;;-4.80;99.90;;;;;;2088587;28;20176;-69
2022/01/25 06:49:06;;;;;;;4.85;2.25;;;-4.80;99.90;;;;;;2088734;28;20208;-68
2022/01/25 06:50:08;;;;;;;3.67;2.33;;;-4.80;99.90;;;;;;2089590;28;20688;-69
2022/01/25 06:51:08;;;;;;;4.03;2.25;;;-4.70;99.90;;;;;;2092874;28;20272;-68
2022/01/25 06:52:11;;;;;;;4.10;2.10;;;-4.60;99.90;;;;;;2090971;28;20183;-69
2022/01/25 06:53:11;;;;;;;3.30;2.03;;;-4.60;99.90;;;;;;2094350;28;20426;-69
2022/01/25 06:54:12;;;;;;;3.97;1.93;;;-4.50;99.90;;;;;;2096528;28;20207;-69
2022/01/25 06:55:15;;;;;;;5.30;2.90;;;-4.50;99.90;;;;;;2096878;28;20225;-69
2022/01/25 06:56:16;;;;;;;3.50;2.40;;;-4.50;99.90;;;;;;2097389;28;20257;-68
2022/01/25 06:57:18;;;;;;;3.63;2.60;;;-4.40;99.90;;;;;;2098921;28;20233;-69
2022/01/25 06:58:18;;;;;;;4.10;2.30;;;-4.30;99.90;;;;;;2098822;28;20179;-69
2022/01/25 06:59:19;;;;;;;3.70;2.03;;;-4.30;99.90;;;;;;2097738;28;20188;-69
2022/01/25 07:00:23;;;;;;;3.93;2.40;;;-4.30;99.90;;;;;;2098115;28;20298;-68
2022/01/25 07:01:24;;;;;;;5.05;2.55;;;-4.40;99.90;;;;;;2099009;28;20176;-69
2022/01/25 07:02:25;;;;;;;4.77;2.50;;;-4.40;99.90;;;;;;2098834;28;20184;-68